Time;durP1;ratioP1;P1;durP2;ratioP2;P2;SDS_P1;SDS_P2;PMS_P1;PMS_P2;Temp;Humidity;BMP_temperature;BMP_pressure;BME280_temperature;BME280_humidity;BME280_pressure;Samples;Min_cycle;Max_cycle;Signal;HPM_P1;HPM_P2
2022/04/17 00:00:27;;;;;;;49.28;40.13;;;6.60;99.90;;;;;;4997981;28;20402;-69
2022/04/17 00:02:53;;;;;;;47.03;38.55;;;6.40;99.90;;;;;;4997951;28;20092;-68
2022/04/17 00:05:19;;;;;;;45.42;35.45;;;6.70;99.90;;;;;;4997936;28;20046;-68
2022/04/17 00:07:45;;;;;;;44.45;34.95;;;6.40;99.90;;;;;;4997879;28;20053;-68
2022/04/17 00:10:11;;;;;;;41.05;34.53;;;7.00;99.90;;;;;;4996811;28;20129;-68
2022/04/17 00:12:41;;;;;;;40.22;32.30;;;6.50;99.90;;;;;;4997713;28;20546;-68
2022/04/17 00:15:09;;;;;;;35.08;29.70;;;7.30;99.90;;;;;;4998529;28;20133;-68
2022/04/17 00:17:42;;;;;;;37.25;30.92;;;6.60;99.90;;;;;;4997690;28;20054;-69
2022/04/17 00:20:17;;;;;;;36.13;29.70;;;6.60;99.90;;;;;;4998189;28;20050;-68
2022/04/17 00:22:44;;;;;;;35.28;27.35;;;6.50;99.90;;;;;;4996469;28;20081;-69
2022/04/17 00:25:11;;;;;;;32.72;24.77;;;6.50;99.90;;;;;;4997584;28;20057;-68
2022/04/17 00:27:39;;;;;;;30.52;25.02;;;6.50;99.90;;;;;;4997954;28;20050;-68
2022/04/17 00:30:06;;;;;;;31.23;24.30;;;6.50;99.90;;;;;;4997284;28;20066;-69
2022/04/17 00:32:32;;;;;;;28.88;21.95;;;6.50;99.90;;;;;;4997045;28;20561;-68
2022/04/17 00:35:00;;;;;;;22.77;19.48;;;6.40;99.90;;;;;;4997428;28;20075;-69
2022/04/17 00:37:26;;;;;;;24.67;19.33;;;6.50;99.90;;;;;;4996217;28;20047;-69
2022/04/17 00:39:53;;;;;;;23.08;18.23;;;6.10;99.90;;;;;;4997308;28;20100;-68
2022/04/17 00:42:19;;;;;;;21.60;16.00;;;6.10;99.90;;;;;;4996267;28;20061;-69
2022/04/17 00:44:44;;;;;;;19.60;15.95;;;6.40;99.90;;;;;;4997717;28;20038;-68
2022/04/17 00:47:15;;;;;;;17.27;15.43;;;6.40;99.90;;;;;;4980282;28;20050;-69
2022/04/17 00:49:42;;;;;;;20.17;15.05;;;6.30;99.90;;;;;;4996942;28;20487;-69
2022/04/17 00:52:08;;;;;;;16.95;14.23;;;6.90;99.90;;;;;;4995851;28;20153;-69
2022/04/17 00:54:38;;;;;;;16.67;12.65;;;6.30;99.90;;;;;;4997046;28;20534;-68
2022/04/17 00:57:06;;;;;;;16.15;12.85;;;6.00;99.90;;;;;;4997463;28;20062;-68
2022/04/17 00:59:32;;;;;;;14.23;11.48;;;6.30;99.90;;;;;;4997449;28;20089;-69
2022/04/17 01:01:58;;;;;;;12.75;11.32;;;6.40;99.90;;;;;;4996941;28;20053;-68
2022/04/17 01:04:24;;;;;;;13.65;10.88;;;6.30;99.90;;;;;;4996577;28;20042;-69
2022/04/17 01:06:49;;;;;;;15.23;11.75;;;6.40;99.90;;;;;;4996862;28;20044;-69
2022/04/17 01:09:15;;;;;;;13.07;10.52;;;6.30;99.90;;;;;;4996734;28;20046;-68
2022/04/17 01:11:43;;;;;;;13.25;9.98;;;6.30;99.90;;;;;;4997187;28;20038;-68
2022/04/17 01:14:12;;;;;;;12.60;10.18;;;6.30;99.90;;;;;;4995484;28;20050;-69
2022/04/17 01:16:38;;;;;;;12.43;9.50;;;6.30;99.90;;;;;;4996614;28;20125;-69
2022/04/17 01:19:13;;;;;;;11.48;9.27;;;6.30;99.90;;;;;;4995437;28;20054;-69
2022/04/17 01:21:40;;;;;;;11.38;10.00;;;6.30;99.90;;;;;;4997162;28;20050;-69
2022/04/17 01:26:56;;;;;;;12.70;10.10;;;6.20;99.90;;;;;;4997047;28;20054;-68
2022/04/17 01:29:34;;;;;;;13.25;9.45;;;6.20;99.90;;;;;;4996214;28;20093;-69
2022/04/17 01:32:01;;;;;;;11.35;9.68;;;6.20;99.90;;;;;;4996336;28;20051;-69
2022/04/17 01:34:26;;;;;;;12.98;9.88;;;7.20;99.90;;;;;;4996584;28;20386;-69
2022/04/17 01:36:53;;;;;;;12.15;9.90;;;6.20;99.90;;;;;;4996784;28;20045;-68
2022/04/17 01:39:19;;;;;;;11.55;9.18;;;6.00;99.90;;;;;;4996196;28;20078;-70
2022/04/17 01:41:45;;;;;;;15.27;9.75;;;6.20;99.90;;;;;;4996121;28;20042;-69
2022/04/17 01:44:11;;;;;;;12.15;10.20;;;6.00;99.90;;;;;;4979207;28;20394;-69
2022/04/17 01:46:37;;;;;;;11.23;9.32;;;6.40;99.90;;;;;;4996037;28;20069;-69
2022/04/17 01:49:04;;;;;;;10.43;9.27;;;6.10;99.90;;;;;;4995087;28;20050;-69
2022/04/17 01:51:38;;;;;;;14.52;9.55;;;6.00;99.90;;;;;;4979573;28;20117;-69
2022/04/17 01:54:15;;;;;;;11.75;10.00;;;6.10;99.90;;;;;;4995824;28;20156;-69
2022/04/17 01:56:42;;;;;;;11.95;9.25;;;5.90;99.90;;;;;;4995877;28;20038;-68
2022/04/17 01:59:09;;;;;;;11.02;9.48;;;5.80;99.90;;;;;;4995798;28;20491;-69
2022/04/17 02:01:35;;;;;;;11.55;9.63;;;5.90;99.90;;;;;;4996352;28;20128;-69
2022/04/17 02:04:02;;;;;;;11.32;9.30;;;6.10;99.90;;;;;;4996016;28;20074;-69
2022/04/17 02:06:28;;;;;;;11.52;9.25;;;5.90;99.90;;;;;;4994499;28;20061;-69
2022/04/17 02:08:55;;;;;;;12.98;9.68;;;5.90;99.90;;;;;;4995684;28;20050;-69
2022/04/17 02:11:23;;;;;;;11.68;9.43;;;5.70;99.90;;;;;;4995547;28;20050;-69
2022/04/17 02:13:50;;;;;;;10.90;9.25;;;6.30;99.90;;;;;;4995008;28;20050;-69
2022/04/17 02:16:19;;;;;;;11.90;9.52;;;5.90;99.90;;;;;;4995078;28;20050;-69
2022/04/17 02:18:48;;;;;;;11.38;10.20;;;6.00;99.90;;;;;;4994338;28;20050;-69
2022/04/17 02:21:16;;;;;;;12.07;9.85;;;5.70;99.90;;;;;;4979012;28;20133;-69
2022/04/17 02:23:42;;;;;;;12.65;10.20;;;5.70;99.90;;;;;;4995384;28;20134;-69
2022/04/17 02:26:10;;;;;;;13.60;10.23;;;6.10;99.90;;;;;;4994763;28;20046;-69
2022/04/17 02:28:36;;;;;;;12.02;10.20;;;5.50;99.90;;;;;;4994897;28;20069;-69
2022/04/17 02:31:03;;;;;;;13.20;10.38;;;5.60;99.90;;;;;;4978008;28;20489;-69
2022/04/17 02:33:29;;;;;;;11.73;10.48;;;5.80;99.90;;;;;;4993945;28;20097;-69
2022/04/17 02:35:55;;;;;;;13.40;10.90;;;5.40;99.90;;;;;;4995426;28;20046;-69
2022/04/17 02:38:21;;;;;;;13.07;10.60;;;6.30;99.90;;;;;;4995619;28;20109;-69
2022/04/17 02:40:50;;;;;;;14.48;11.25;;;5.60;99.90;;;;;;4995058;28;20046;-69
2022/04/17 02:43:16;;;;;;;14.20;11.35;;;5.80;99.90;;;;;;4994983;28;20046;-69
2022/04/17 02:45:43;;;;;;;15.38;12.15;;;5.50;99.90;;;;;;4994724;28;20129;-69
2022/04/17 02:48:08;;;;;;;16.58;12.60;;;5.40;99.90;;;;;;4994037;28;20104;-69
2022/04/17 02:50:34;;;;;;;16.48;13.27;;;6.30;99.90;;;;;;4994914;28;20498;-69
2022/04/17 02:53:00;;;;;;;18.38;13.73;;;5.40;99.90;;;;;;4994709;28;20057;-69
2022/04/17 02:55:26;;;;;;;19.08;14.43;;;5.20;99.90;;;;;;4994278;28;20486;-68
2022/04/17 02:57:52;;;;;;;19.30;14.73;;;5.80;99.90;;;;;;4994673;28;20510;-69
2022/04/17 03:00:18;;;;;;;16.95;14.43;;;5.20;99.90;;;;;;4994764;28;20046;-69
2022/04/17 03:05:36;;;;;;;17.58;15.23;;;5.70;99.90;;;;;;4993803;28;20054;-69
2022/04/17 03:08:19;;;;;;;19.73;14.38;;;5.90;99.90;;;;;;4995287;28;20441;-69
2022/04/17 03:10:48;;;;;;;18.13;14.88;;;5.30;99.90;;;;;;4994269;28;20520;-69
2022/04/17 03:13:15;;;;;;;18.55;15.25;;;5.30;99.90;;;;;;4994823;28;20042;-69
2022/04/17 03:15:41;;;;;;;21.63;16.10;;;5.20;99.90;;;;;;4993056;28;20517;-70
2022/04/17 03:18:10;;;;;;;17.95;15.63;;;5.00;99.90;;;;;;4995326;28;20098;-69
2022/04/17 03:20:36;;;;;;;20.15;15.80;;;5.10;99.90;;;;;;4994435;28;20046;-69
2022/04/17 03:23:03;;;;;;;20.83;15.27;;;5.50;99.90;;;;;;4994416;28;20050;-69
2022/04/17 03:25:29;;;;;;;19.73;15.90;;;5.60;99.90;;;;;;4993412;28;20053;-69
2022/04/17 03:27:57;;;;;;;18.60;15.63;;;5.00;99.90;;;;;;4977215;28;20046;-69
2022/04/17 03:30:23;;;;;;;22.17;17.98;;;5.40;99.90;;;;;;4994781;28;20093;-69
2022/04/17 03:32:50;;;;;;;21.27;16.88;;;4.90;99.90;;;;;;4993337;28;20051;-68
2022/04/17 03:35:18;;;;;;;21.30;17.55;;;5.00;99.90;;;;;;4994834;28;20054;-69
2022/04/17 03:37:44;;;;;;;21.55;17.35;;;5.50;99.90;;;;;;4994245;28;20054;-69
2022/04/17 03:40:12;;;;;;;20.92;18.02;;;5.00;99.90;;;;;;4994491;28;20050;-69
2022/04/17 03:42:39;;;;;;;22.08;18.63;;;4.90;99.90;;;;;;4994117;28;20068;-68
2022/04/17 03:45:08;;;;;;;23.83;18.70;;;4.90;99.90;;;;;;4993254;28;20050;-69
2022/04/17 03:47:35;;;;;;;21.80;17.83;;;4.90;99.90;;;;;;4993213;28;20046;-69
2022/04/17 03:50:03;;;;;;;22.20;18.10;;;4.90;99.90;;;;;;4994184;28;20050;-69
2022/04/17 03:52:38;;;;;;;24.48;19.33;;;4.90;99.90;;;;;;4994923;28;20394;-69
2022/04/17 03:55:04;;;;;;;24.20;18.65;;;4.70;99.90;;;;;;4993520;28;20137;-69
2022/04/17 03:57:30;;;;;;;26.83;19.63;;;4.80;99.90;;;;;;4994825;28;20435;-69
2022/04/17 03:59:55;;;;;;;24.38;18.88;;;4.70;99.90;;;;;;4993178;28;20089;-69
2022/04/17 04:02:21;;;;;;;26.00;19.80;;;4.70;99.90;;;;;;4994597;28;20043;-69
2022/04/17 04:04:47;;;;;;;24.25;19.00;;;4.80;99.90;;;;;;4994596;28;20042;-68
2022/04/17 04:07:12;;;;;;;25.20;19.52;;;5.00;99.90;;;;;;4994331;28;20461;-68
2022/04/17 04:09:38;;;;;;;26.60;18.77;;;5.10;99.90;;;;;;4994035;28;20054;-69
2022/04/17 04:12:05;;;;;;;23.02;18.67;;;4.70;99.90;;;;;;4993569;28;20046;-69
2022/04/17 04:14:31;;;;;;;22.08;18.25;;;4.60;99.90;;;;;;4994012;28;20053;-69
2022/04/17 04:16:56;;;;;;;24.17;17.90;;;4.70;99.90;;;;;;4994752;28;20046;-68
2022/04/17 04:19:22;;;;;;;24.30;18.35;;;4.70;99.90;;;;;;4993960;28;20368;-68
2022/04/17 04:21:47;;;;;;;23.17;17.50;;;4.40;99.90;;;;;;4992687;28;20042;-68
2022/04/17 04:24:14;;;;;;;24.60;18.02;;;4.90;99.90;;;;;;4993854;28;20142;-68
2022/04/17 04:26:42;;;;;;;23.85;17.00;;;5.00;99.90;;;;;;4993788;28;20061;-68
2022/04/17 04:29:08;;;;;;;22.90;17.30;;;4.40;99.90;;;;;;4993284;28;20565;-68
2022/04/17 04:31:34;;;;;;;22.52;17.67;;;4.50;99.90;;;;;;4992564;28;20130;-68
2022/04/17 04:33:59;;;;;;;21.73;16.25;;;4.40;99.90;;;;;;4994318;28;20065;-69
2022/04/17 04:36:25;;;;;;;23.73;16.80;;;4.50;99.90;;;;;;4994344;28;20068;-68
2022/04/17 04:38:51;;;;;;;24.08;17.88;;;5.60;99.90;;;;;;4996187;28;20046;-68
2022/04/17 04:41:16;;;;;;;25.45;17.48;;;4.90;99.90;;;;;;4996664;28;20075;-69
2022/04/17 04:43:42;;;;;;;24.73;17.75;;;5.40;99.90;;;;;;4997310;28;20046;-68
2022/04/17 04:46:08;;;;;;;22.85;17.80;;;4.60;99.90;;;;;;4996896;28;20047;-68
2022/04/17 04:51:19;;;;;;;23.35;17.55;;;4.40;99.90;;;;;;4997145;28;20050;-68
2022/04/17 04:53:45;;;;;;;23.98;18.33;;;4.80;99.90;;;;;;4997065;28;20057;-69
2022/04/17 04:56:12;;;;;;;26.38;18.67;;;4.60;99.90;;;;;;4995863;28;20050;-69
2022/04/17 04:58:38;;;;;;;26.50;19.30;;;4.70;99.90;;;;;;4995988;28;20053;-68
2022/04/17 05:01:04;;;;;;;29.23;20.17;;;4.50;99.90;;;;;;4997545;28;20042;-69
2022/04/17 05:03:30;;;;;;;27.27;18.50;;;4.70;99.90;;;;;;4997176;28;20064;-69
2022/04/17 05:05:56;;;;;;;27.27;19.50;;;4.70;99.90;;;;;;4996877;28;20498;-68
2022/04/17 05:08:21;;;;;;;31.27;21.17;;;4.60;99.90;;;;;;4997631;28;20426;-69
2022/04/17 05:10:47;;;;;;;27.58;20.50;;;4.80;99.90;;;;;;4997003;28;20475;-69
2022/04/17 05:13:14;;;;;;;30.00;21.77;;;5.10;99.90;;;;;;4995711;28;20062;-69
2022/04/17 05:15:40;;;;;;;27.95;21.40;;;5.10;99.90;;;;;;4996973;28;20042;-69
2022/04/17 05:18:06;;;;;;;28.08;19.98;;;4.70;99.90;;;;;;4996640;28;20047;-69
2022/04/17 05:20:33;;;;;;;30.65;21.48;;;5.70;99.90;;;;;;4996817;28;20490;-69
2022/04/17 05:23:33;;;;;;;29.60;21.17;;;5.30;99.90;;;;;;4997163;28;20062;-69
2022/04/17 05:25:54;;;;;;;29.83;21.73;;;5.20;99.90;;;;;;4994131;28;20090;-68
2022/04/17 05:28:20;;;;;;;26.17;21.30;;;5.00;99.90;;;;;;4996184;28;20125;-68
2022/04/17 05:30:47;;;;;;;31.08;21.60;;;5.10;99.90;;;;;;4996400;28;20058;-68
2022/04/17 05:33:13;;;;;;;28.27;21.00;;;5.10;99.90;;;;;;4996039;28;20461;-69
2022/04/17 05:35:39;;;;;;;30.92;21.55;;;5.10;99.90;;;;;;4996870;28;20080;-68
2022/04/17 05:38:05;;;;;;;30.83;20.73;;;5.20;99.90;;;;;;4996250;28;20447;-69
2022/04/17 05:40:36;;;;;;;32.20;21.52;;;5.00;99.90;;;;;;4996424;28;20479;-68
2022/04/17 05:43:02;;;;;;;31.83;21.85;;;5.70;99.90;;;;;;4979199;28;20061;-68
2022/04/17 05:45:28;;;;;;;30.80;21.08;;;5.30;99.90;;;;;;4979561;28;20416;-69
2022/04/17 05:47:56;;;;;;;35.75;23.08;;;5.30;99.90;;;;;;4978950;28;20507;-68
2022/04/17 05:50:22;;;;;;;30.20;22.27;;;5.50;99.90;;;;;;4994965;28;20112;-68
2022/04/17 05:52:47;;;;;;;29.88;23.00;;;5.20;99.90;;;;;;4995920;28;20042;-68
2022/04/17 05:55:14;;;;;;;33.33;24.38;;;5.50;99.90;;;;;;4995356;28;20100;-68
2022/04/17 05:57:41;;;;;;;32.25;23.60;;;6.00;99.90;;;;;;4994858;28;20136;-69
2022/04/17 06:00:08;;;;;;;31.70;23.58;;;6.30;99.90;;;;;;4996584;28;20050;-68
2022/04/17 06:02:38;;;;;;;30.90;22.88;;;5.60;99.90;;;;;;4995752;28;20042;-68
2022/04/17 06:05:05;;;;;;;36.03;23.52;;;5.60;99.90;;;;;;4995767;28;20046;-69
2022/04/17 06:07:31;;;;;;;32.75;23.05;;;5.70;99.90;;;;;;4996155;28;20046;-68
2022/04/17 06:10:04;;;;;;;30.70;22.48;;;5.80;99.90;;;;;;4996276;28;20125;-68
2022/04/17 06:12:30;;;;;;;27.65;21.67;;;5.80;99.90;;;;;;4995630;28;20046;-68
2022/04/17 06:14:56;;;;;;;27.38;20.48;;;5.80;99.90;;;;;;4995585;28;20051;-68
2022/04/17 06:17:21;;;;;;;25.55;19.33;;;6.20;99.90;;;;;;4995551;28;20129;-68
2022/04/17 06:19:47;;;;;;;26.65;18.55;;;6.00;99.90;;;;;;4995445;28;20125;-68
2022/04/17 06:22:13;;;;;;;26.40;17.55;;;6.50;99.90;;;;;;4994179;28;20143;-68
2022/04/17 06:24:39;;;;;;;23.98;18.08;;;6.10;99.90;;;;;;4994432;28;20049;-68
2022/04/17 06:27:04;;;;;;;26.20;19.05;;;6.40;99.90;;;;;;4995812;28;20046;-68
2022/04/17 06:29:30;;;;;;;23.58;18.40;;;6.30;99.90;;;;;;4994124;28;20153;-68
2022/04/17 06:31:56;;;;;;;24.35;17.60;;;6.40;99.90;;;;;;4995179;28;20125;-68
2022/04/17 06:34:22;;;;;;;22.67;17.48;;;6.50;99.90;;;;;;4995505;28;20462;-68
2022/04/17 06:36:48;;;;;;;23.52;17.30;;;6.30;99.90;;;;;;4994993;28;20553;-68
2022/04/17 06:39:14;;;;;;;21.15;17.52;;;6.90;99.90;;;;;;4993790;28;20108;-68
2022/04/17 06:41:39;;;;;;;22.23;17.33;;;6.60;99.90;;;;;;4994751;28;20112;-68
2022/04/17 06:44:05;;;;;;;22.52;17.33;;;6.70;99.90;;;;;;4995638;28;20050;-68
2022/04/17 06:46:32;;;;;;;21.40;16.80;;;6.80;99.90;;;;;;4995687;28;20474;-68
2022/04/17 06:48:58;;;;;;;21.60;16.13;;;7.20;99.90;;;;;;4994838;28;20047;-68
2022/04/17 06:51:25;;;;;;;21.88;16.17;;;7.00;99.90;;;;;;4994697;28;20509;-68
2022/04/17 06:53:52;;;;;;;24.10;16.23;;;6.90;99.90;;;;;;4994457;28;20046;-68
2022/04/17 06:56:21;;;;;;;22.13;16.30;;;7.10;99.90;;;;;;4994351;28;20509;-68
2022/04/17 06:58:48;;;;;;;17.88;13.93;;;7.10;99.90;;;;;;4995027;28;20081;-69
2022/04/17 07:01:14;;;;;;;16.80;11.45;;;7.10;99.90;;;;;;4993376;28;20133;-68
2022/04/17 07:03:41;;;;;;;14.02;11.38;;;7.30;99.90;;;;;;4995298;28;20046;-68
2022/04/17 07:06:07;;;;;;;14.98;11.38;;;7.30;99.90;;;;;;4993488;28;20056;-68
2022/04/17 07:08:32;;;;;;;14.25;10.95;;;7.60;99.90;;;;;;4994572;28;20133;-68
2022/04/17 07:10:58;;;;;;;18.33;12.15;;;7.50;99.90;;;;;;4994445;28;20052;-68
2022/04/17 07:13:25;;;;;;;16.90;11.95;;;7.80;99.90;;;;;;4994434;28;20100;-68
2022/04/17 07:15:51;;;;;;;15.02;12.80;;;7.70;99.90;;;;;;4994383;28;20054;-68
2022/04/17 07:18:16;;;;;;;17.67;12.10;;;7.80;99.90;;;;;;4993436;28;20042;-68
2022/04/17 07:20:42;;;;;;;13.80;11.02;;;7.80;99.90;;;;;;4994127;28;20049;-68
2022/04/17 07:23:08;;;;;;;14.25;11.23;;;7.90;99.90;;;;;;4994438;28;20049;-68
2022/04/17 07:25:35;;;;;;;13.40;10.90;;;8.00;99.90;;;;;;4994080;28;20057;-67
2022/04/17 07:28:01;;;;;;;12.73;8.98;;;8.10;99.90;;;;;;4995020;28;20410;-67
2022/04/17 07:30:33;;;;;;;11.20;9.13;;;8.40;99.90;;;;;;4994144;28;20538;-67
2022/04/17 07:33:00;;;;;;;13.30;10.02;;;8.20;99.90;;;;;;4994330;28;20089;-67
2022/04/17 07:35:27;;;;;;;13.57;9.82;;;8.30;99.90;;;;;;4994352;28;20050;-67
2022/04/17 07:38:05;;;;;;;12.57;9.98;;;8.30;99.90;;;;;;4994158;28;20053;-67
2022/04/17 07:40:34;;;;;;;11.93;8.93;;;8.30;99.90;;;;;;4994318;28;20042;-67
2022/04/17 07:43:02;;;;;;;11.98;9.05;;;8.40;99.90;;;;;;4993487;28;20372;-67
2022/04/17 07:45:29;;;;;;;11.98;8.55;;;8.50;99.90;;;;;;4993815;28;20364;-69
2022/04/17 07:47:55;;;;;;;10.65;7.95;;;8.60;99.90;;;;;;4993868;28;20486;-68
2022/04/17 07:50:23;;;;;;;10.00;7.90;;;8.60;99.90;;;;;;4994087;28;20185;-69
2022/04/17 07:52:50;;;;;;;10.10;6.78;;;8.70;99.90;;;;;;4992743;28;20053;-68
2022/04/17 07:55:16;;;;;;;10.35;7.47;;;8.80;99.90;;;;;;4993944;28;20053;-69
2022/04/17 07:57:59;;;;;;;8.70;6.35;;;8.80;99.90;;;;;;4993873;28;20046;-69
2022/04/17 08:00:27;;;;;;;8.02;6.85;;;8.90;99.90;;;;;;4993448;28;20046;-69
2022/04/17 08:03:06;;;;;;;9.45;6.40;;;9.00;99.90;;;;;;4993898;28;20109;-69
2022/04/17 08:05:35;;;;;;;8.88;6.22;;;9.10;99.90;;;;;;4993538;28;20065;-69
2022/04/17 08:08:03;;;;;;;8.00;6.18;;;9.20;99.90;;;;;;4993878;28;20058;-69
2022/04/17 08:10:28;;;;;;;9.30;6.43;;;9.20;99.90;;;;;;4993927;28;20054;-69
2022/04/17 08:12:54;;;;;;;7.22;5.55;;;9.40;99.90;;;;;;4993807;28;20046;-69
2022/04/17 08:15:20;;;;;;;7.68;6.05;;;9.40;99.90;;;;;;4996628;28;20081;-69
2022/04/17 08:17:45;;;;;;;8.75;6.82;;;9.30;99.90;;;;;;4998605;28;20053;-69
2022/04/17 08:20:11;;;;;;;8.63;6.15;;;9.60;99.90;;;;;;4996325;28;20053;-69
2022/04/17 08:22:37;;;;;;;7.82;6.57;;;9.60;99.90;;;;;;4997222;28;20442;-70
2022/04/17 08:25:03;;;;;;;7.38;5.85;;;9.70;99.90;;;;;;4997516;28;20050;-69
2022/04/17 08:27:28;;;;;;;6.85;5.60;;;9.70;99.90;;;;;;4996435;28;20042;-69
2022/04/17 08:29:54;;;;;;;7.88;4.97;;;9.70;99.90;;;;;;4997160;28;20065;-69
2022/04/17 08:32:20;;;;;;;6.38;4.97;;;10.00;99.90;;;;;;4997572;28;20050;-69
2022/04/17 08:34:45;;;;;;;6.50;5.35;;;9.90;99.90;;;;;;4996840;28;20522;-70
2022/04/17 08:37:11;;;;;;;6.90;5.40;;;10.00;99.90;;;;;;4996936;28;20068;-69
2022/04/17 08:39:37;;;;;;;9.77;6.25;;;10.00;99.90;;;;;;4997469;28;20050;-69
2022/04/17 08:42:05;;;;;;;6.82;5.28;;;10.10;99.70;;;;;;4997208;28;20073;-69
2022/04/17 08:44:31;;;;;;;7.10;5.40;;;10.20;98.90;;;;;;4997228;28;20482;-69
2022/04/17 08:46:56;;;;;;;7.68;5.45;;;10.20;98.40;;;;;;4997204;28;20042;-69
2022/04/17 08:49:24;;;;;;;8.63;5.88;;;10.30;98.30;;;;;;4996025;28;20050;-68
2022/04/17 08:51:51;;;;;;;6.40;5.40;;;10.30;98.30;;;;;;4997612;28;20443;-69
2022/04/17 08:54:17;;;;;;;9.05;5.32;;;10.40;98.30;;;;;;4997129;28;20050;-69
2022/04/17 08:56:43;;;;;;;7.30;5.50;;;10.40;98.20;;;;;;4995916;28;20457;-70
2022/04/17 08:59:09;;;;;;;6.90;5.15;;;10.50;98.10;;;;;;4996621;28;20050;-70
2022/04/17 09:01:38;;;;;;;6.78;5.40;;;10.50;98.20;;;;;;4996982;28;20097;-69
2022/04/17 09:04:04;;;;;;;8.20;5.22;;;10.60;97.80;;;;;;4996731;28;20129;-69
2022/04/17 09:06:30;;;;;;;5.10;4.53;;;10.70;97.60;;;;;;4995082;28;20459;-69
2022/04/17 09:09:18;;;;;;;4.90;3.97;;;10.70;97.30;;;;;;4996261;28;20042;-69
2022/04/17 09:11:44;;;;;;;6.43;4.05;;;10.80;95.40;;;;;;4994792;28;20058;-69
2022/04/17 09:14:10;;;;;;;4.90;3.70;;;10.90;95.40;;;;;;4978975;28;20054;-68
2022/04/17 09:16:38;;;;;;;3.50;3.00;;;11.00;94.50;;;;;;4995914;28;20498;-69
2022/04/17 09:19:16;;;;;;;6.03;3.42;;;11.00;93.50;;;;;;4996007;28;20502;-68
2022/04/17 09:21:42;;;;;;;4.13;3.50;;;11.10;93.30;;;;;;4996054;28;20077;-68
2022/04/17 09:24:19;;;;;;;4.80;3.80;;;11.10;92.90;;;;;;4995540;28;20439;-69
2022/04/17 09:26:57;;;;;;;5.35;4.03;;;11.20;92.30;;;;;;4995863;28;20081;-69
2022/04/17 09:29:33;;;;;;;4.25;3.50;;;11.20;91.60;;;;;;4995744;28;20419;-68
2022/04/17 09:32:06;;;;;;;5.07;3.20;;;11.30;91.50;;;;;;4996337;28;20387;-69
2022/04/17 09:34:41;;;;;;;5.95;4.20;;;11.30;91.60;;;;;;4996116;28;20059;-69
2022/04/17 09:37:12;;;;;;;4.78;3.38;;;11.40;91.70;;;;;;4978921;28;20356;-69
2022/04/17 09:39:38;;;;;;;4.70;3.25;;;11.40;91.00;;;;;;4994839;28;20046;-69
2022/04/17 09:42:05;;;;;;;5.20;3.08;;;11.50;90.50;;;;;;4995730;28;20130;-69
2022/04/17 09:44:51;;;;;;;4.43;3.47;;;11.50;90.30;;;;;;4995567;28;20042;-69
2022/04/17 09:47:19;;;;;;;4.55;3.55;;;11.60;90.20;;;;;;4995640;28;20047;-69
2022/04/17 09:50:12;;;;;;;6.55;3.50;;;11.60;89.60;;;;;;4994457;28;20042;-69
2022/04/17 09:52:45;;;;;;;5.78;3.50;;;11.70;89.00;;;;;;4995330;28;20125;-69
2022/04/17 09:55:11;;;;;;;4.63;3.55;;;11.90;88.40;;;;;;4995881;28;20050;-70
2022/04/17 09:57:41;;;;;;;4.20;3.30;;;11.90;86.70;;;;;;4995918;28;20058;-70
2022/04/17 10:00:11;;;;;;;4.45;3.58;;;12.00;86.60;;;;;;4995495;28;20038;-71
2022/04/17 10:02:38;;;;;;;4.60;3.33;;;12.00;86.00;;;;;;4996613;28;20074;-70
2022/04/17 10:05:06;;;;;;;4.85;3.72;;;12.10;86.10;;;;;;4995679;28;20053;-71
2022/04/17 10:07:34;;;;;;;4.05;3.25;;;12.10;86.00;;;;;;4995747;28;20406;-71
2022/04/17 10:10:00;;;;;;;5.88;3.78;;;12.20;85.70;;;;;;4996259;28;20049;-71
2022/04/17 10:12:25;;;;;;;3.65;2.95;;;12.20;85.20;;;;;;4996104;28;20042;-72
2022/04/17 10:14:52;;;;;;;6.20;3.30;;;12.30;85.10;;;;;;4994970;28;20043;-71
2022/04/17 10:17:22;;;;;;;4.13;3.25;;;12.40;84.00;;;;;;4994063;28;20490;-71
2022/04/17 10:19:50;;;;;;;5.35;4.03;;;12.40;83.20;;;;;;4995756;28;20054;-71
2022/04/17 10:22:18;;;;;;;4.45;3.33;;;12.50;82.60;;;;;;4978106;28;20129;-71
2022/04/17 10:24:51;;;;;;;4.93;3.47;;;12.50;81.30;;;;;;4995662;28;20054;-71
2022/04/17 10:27:24;;;;;;;;;;;12.60;81.90;;;;;;4995719;28;20046;-71
2022/04/17 10:29:57;;;;;;;5.63;3.47;;;12.60;84.10;;;;;;4995300;28;19921;-72
2022/04/17 10:32:36;;;;;;;3.63;2.75;;;12.70;83.10;;;;;;4993973;28;20133;-71
2022/04/17 10:35:27;;;;;;;3.97;2.75;;;12.80;81.50;;;;;;4993985;28;20054;-71
2022/04/17 10:38:21;;;;;;;3.97;3.17;;;12.90;79.20;;;;;;4995251;28;20050;-72
2022/04/17 10:40:59;;;;;;;3.60;2.90;;;12.90;76.80;;;;;;4995060;28;20105;-72
2022/04/17 10:43:54;;;;;;;4.35;3.00;;;13.00;76.90;;;;;;4994542;28;20042;-71
2022/04/17 10:46:23;;;;;;;3.33;2.40;;;13.10;76.00;;;;;;4986819;28;20059;-72
2022/04/17 10:48:55;;;;;;;3.63;2.33;;;13.10;75.60;;;;;;4995004;28;20116;-72
2022/04/17 10:51:27;;;;;;;4.22;2.70;;;13.20;74.70;;;;;;4994896;28;20121;-72
2022/04/17 10:54:00;;;;;;;4.45;2.67;;;13.20;74.90;;;;;;4994913;28;20380;-71
2022/04/17 10:56:27;;;;;;;4.68;3.10;;;13.30;74.00;;;;;;4977960;28;20058;-72
2022/04/17 10:58:57;;;;;;;3.75;2.70;;;13.30;72.00;;;;;;4993746;28;20085;-71
2022/04/17 11:01:49;;;;;;;4.78;3.08;;;13.40;71.40;;;;;;4994117;28;20143;-71
2022/04/17 11:04:19;;;;;;;3.80;3.33;;;13.40;71.00;;;;;;4994692;28;20114;-72
2022/04/17 11:06:45;;;;;;;5.70;2.92;;;13.50;69.80;;;;;;4977347;28;20082;-71
2022/04/17 11:09:20;;;;;;;6.15;2.92;;;13.50;68.60;;;;;;4994713;28;20041;-71
2022/04/17 11:11:46;;;;;;;4.65;3.08;;;13.50;69.10;;;;;;4994779;28;20538;-72
2022/04/17 11:14:19;;;;;;;3.88;2.38;;;13.60;68.40;;;;;;4994466;28;20137;-73
2022/04/17 11:16:56;;;;;;;3.88;3.00;;;13.70;67.60;;;;;;4994367;28;20046;-72
2022/04/17 11:19:34;;;;;;;4.22;2.95;;;13.70;67.70;;;;;;4994487;28;20112;-71
2022/04/17 11:22:02;;;;;;;5.35;2.85;;;13.70;67.20;;;;;;4994506;28;20046;-71
2022/04/17 11:24:30;;;;;;;4.22;2.90;;;13.80;66.40;;;;;;4993241;28;20054;-72
2022/04/17 11:26:55;;;;;;;3.90;3.08;;;13.80;66.10;;;;;;4995084;28;20379;-69
2022/04/17 11:29:39;;;;;;;4.38;2.88;;;13.90;66.00;;;;;;4994422;28;20058;-72
2022/04/17 11:32:30;;;;;;;4.35;2.92;;;14.00;66.00;;;;;;4995033;28;20053;-72
2022/04/17 11:35:01;;;;;;;3.67;2.90;;;14.00;66.20;;;;;;4987104;28;20057;-72
2022/04/17 11:37:31;;;;;;;4.68;3.65;;;14.10;65.40;;;;;;4994344;28;20053;-72
2022/04/17 11:40:07;;;;;;;5.43;3.55;;;14.10;65.10;;;;;;4995034;28;20129;-73
2022/04/17 11:42:49;;;;;;;4.45;2.95;;;14.10;65.40;;;;;;4993586;28;20077;-72
2022/04/17 11:45:27;;;;;;;3.22;2.38;;;14.20;64.70;;;;;;4994264;28;20090;-72
2022/04/17 11:47:55;;;;;;;4.82;2.88;;;14.20;64.10;;;;;;4995853;28;20073;-73
2022/04/17 11:50:27;;;;;;;3.97;2.72;;;14.30;63.50;;;;;;4997213;28;20050;-72
2022/04/17 11:52:54;;;;;;;4.27;2.80;;;14.40;63.80;;;;;;4996989;28;20115;-73
2022/04/17 11:55:32;;;;;;;4.20;2.85;;;14.40;63.60;;;;;;4998179;28;20043;-73
2022/04/17 11:57:59;;;;;;;5.47;2.65;;;14.40;63.40;;;;;;4996746;28;20136;-72
2022/04/17 12:00:26;;;;;;;5.45;3.05;;;14.50;62.70;;;;;;4996738;28;20061;-73
2022/04/17 12:02:59;;;;;;;3.47;2.40;;;14.60;62.20;;;;;;4998029;28;20107;-72
2022/04/17 12:05:25;;;;;;;4.30;2.50;;;14.60;62.30;;;;;;4997887;28;20046;-73
2022/04/17 12:08:06;;;;;;;3.67;2.67;;;14.70;61.10;;;;;;4997898;28;20466;-75
2022/04/17 12:10:32;;;;;;;3.65;2.63;;;14.70;62.20;;;;;;4998789;28;20093;-74
2022/04/17 12:13:09;;;;;;;3.50;2.85;;;14.80;61.80;;;;;;4997826;28;20083;-73
2022/04/17 12:15:35;;;;;;;3.70;2.95;;;14.80;60.90;;;;;;4996576;28;20054;-74
2022/04/17 12:18:01;;;;;;;4.40;2.92;;;14.80;59.90;;;;;;4997985;28;20048;-73
2022/04/17 12:20:27;;;;;;;3.63;2.30;;;14.90;59.40;;;;;;4997679;28;20057;-74
2022/04/17 12:22:53;;;;;;;3.95;2.25;;;14.90;59.30;;;;;;4997637;28;20100;-74
2022/04/17 12:25:21;;;;;;;3.65;2.30;;;15.00;59.00;;;;;;4996711;28;20082;-72
2022/04/17 12:27:48;;;;;;;3.28;2.50;;;15.00;59.20;;;;;;4997525;28;20050;-73
2022/04/17 12:30:19;;;;;;;2.78;2.33;;;15.10;59.10;;;;;;4997206;28;20149;-73
2022/04/17 12:32:45;;;;;;;3.05;2.42;;;15.10;59.40;;;;;;4997142;28;20422;-72
2022/04/17 12:35:14;;;;;;;3.33;2.35;;;15.10;58.90;;;;;;4995998;28;20050;-73
2022/04/17 12:37:40;;;;;;;4.10;2.72;;;15.20;59.40;;;;;;4997428;28;20043;-73
2022/04/17 12:40:14;;;;;;;2.60;2.22;;;15.20;59.10;;;;;;4996436;28;20046;-72
2022/04/17 12:42:40;;;;;;;4.07;2.63;;;15.20;59.00;;;;;;4997275;28;20050;-73
2022/04/17 12:45:08;;;;;;;4.38;2.38;;;15.30;58.70;;;;;;4998062;28;20124;-74
2022/04/17 12:47:36;;;;;;;3.67;2.65;;;15.30;58.10;;;;;;4996142;28;20050;-72
2022/04/17 12:50:11;;;;;;;3.25;2.20;;;15.30;57.50;;;;;;4997961;28;20050;-73
2022/04/17 12:52:37;;;;;;;4.03;2.10;;;15.40;58.20;;;;;;4997202;28;20115;-73
2022/04/17 12:55:10;;;;;;;2.90;1.63;;;15.50;56.90;;;;;;4997115;28;20120;-72
2022/04/17 12:57:37;;;;;;;2.88;1.92;;;15.50;56.00;;;;;;4996330;28;20097;-75